Time;durP1;ratioP1;P1;durP2;ratioP2;P2;SDS_P1;SDS_P2;PMS_P1;PMS_P2;Temp;Humidity;BMP_temperature;BMP_pressure;BME280_temperature;BME280_humidity;BME280_pressure;Samples;Min_cycle;Max_cycle;Signal;HPM_P1;HPM_P2
2023/05/28 00:00:20;;;;;;;4.97;2.50;;;;;;;17.54;46.75;100482.96;1757141;82;21033;-64
2023/05/28 00:02:51;;;;;;;6.17;2.70;;;;;;;17.53;46.80;100482.12;1757126;82;21462;-67
2023/05/28 00:05:20;;;;;;;5.67;2.40;;;;;;;17.52;46.85;100485.13;1757219;82;21481;-65
2023/05/28 00:07:50;;;;;;;5.17;2.25;;;;;;;17.43;46.92;100482.72;1757048;82;21054;-65
2023/05/28 00:10:20;;;;;;;5.83;2.30;;;;;;;17.37;47.01;100483.69;1757296;80;21077;-65
2023/05/28 00:12:50;;;;;;;9.25;2.55;;;;;;;17.34;47.08;100486.09;1757321;80;21097;-64
2023/05/28 00:15:20;;;;;;;4.87;2.15;;;;;;;17.28;47.16;100492.59;1728954;82;21046;-66
2023/05/28 00:20:36;;;;;;;8.55;2.42;;;;;;;17.17;47.30;100497.03;1730915;82;21014;-65
2023/05/28 00:23:04;;;;;;;6.22;2.30;;;;;;;17.15;47.39;100491.44;1757341;82;21022;-66
2023/05/28 00:25:34;;;;;;;5.22;2.42;;;;;;;17.11;47.53;100493.30;1757231;82;21049;-65
2023/05/28 00:28:04;;;;;;;6.05;2.30;;;;;;;17.06;47.57;100493.70;1757079;80;21113;-65
2023/05/28 00:30:34;;;;;;;7.12;2.37;;;;;;;17.07;47.57;100502.31;1757065;82;21053;-64
2023/05/28 00:33:04;;;;;;;7.15;2.10;;;;;;;17.07;47.50;100500.94;1730570;82;21148;-64
2023/05/28 00:35:33;;;;;;;4.80;2.47;;;;;;;17.08;47.53;100497.92;1729814;82;21093;-64
2023/05/28 00:38:03;;;;;;;6.72;2.35;;;;;;;17.05;47.57;100496.17;1757161;80;21018;-65
2023/05/28 00:40:32;;;;;;;6.05;1.98;;;;;;;17.03;47.66;100499.72;1757025;82;21516;-64
2023/05/28 00:43:03;;;;;;;5.85;2.35;;;;;;;17.01;47.70;100499.11;1757270;80;20990;-65
2023/05/28 00:45:32;;;;;;;4.33;2.20;;;;;;;17.01;47.57;100497.73;1757057;80;21050;-66
2023/05/28 00:48:02;;;;;;;7.20;2.45;;;;;;;16.95;47.66;100507.83;1757002;82;21450;-65
2023/05/28 00:50:32;;;;;;;7.62;2.45;;;;;;;16.92;47.75;100505.53;1757134;81;21002;-65
2023/05/28 00:53:01;;;;;;;4.50;2.00;;;;;;;16.88;47.81;100507.05;1729850;82;21069;-65
2023/05/28 00:55:31;;;;;;;5.50;2.40;;;;;;;16.87;47.79;100500.38;1757114;82;21038;-64
2023/05/28 00:58:05;;;;;;;6.62;2.20;;;;;;;16.85;47.85;100510.83;1757287;80;21069;-65
2023/05/28 01:00:34;;;;;;;6.42;2.30;;;;;;;16.83;47.84;100514.38;1757165;82;21160;-64
2023/05/28 01:03:05;;;;;;;5.45;2.33;;;;;;;16.82;47.91;100508.54;1757328;82;21061;-65
2023/05/28 01:05:35;;;;;;;6.10;2.15;;;;;;;16.77;47.91;100515.63;1729626;82;21097;-65
2023/05/28 01:08:09;;;;;;;7.60;1.92;;;;;;;16.72;47.95;100515.48;1666779;85;21553;-65
2023/05/28 01:10:39;;;;;;;5.35;2.20;;;;;;;16.70;47.98;100524.56;1666719;86;21079;-65
2023/05/28 01:13:09;;;;;;;4.85;2.37;;;;;;;16.66;48.10;100519.20;1666765;86;21083;-65
2023/05/28 01:15:40;;;;;;;5.17;2.08;;;;;;;16.61;48.18;100524.55;1666282;86;21518;-64
2023/05/28 01:18:09;;;;;;;6.85;2.22;;;;;;;16.56;48.22;100519.42;1666895;86;21023;-64
2023/05/28 01:20:41;;;;;;;6.28;1.90;;;;;;;16.55;48.36;100527.41;1666905;86;21108;-64
2023/05/28 01:23:13;;;;;;;7.72;2.22;;;;;;;16.54;48.25;100523.81;1666616;86;21094;-64
2023/05/28 01:25:44;;;;;;;6.95;2.22;;;;;;;16.52;48.28;100525.12;1666770;86;21054;-64
2023/05/28 01:28:13;;;;;;;6.72;2.08;;;;;;;16.46;48.42;100528.28;1613302;87;21135;-65
2023/05/28 01:30:44;;;;;;;6.15;1.85;;;;;;;16.41;48.46;100540.05;1613346;87;21592;-64
2023/05/28 01:33:15;;;;;;;10.70;2.05;;;;;;;16.41;48.51;100535.05;1652197;86;21109;-64
2023/05/28 01:35:44;;;;;;;6.42;1.98;;;;;;;16.38;48.58;100536.90;1666513;86;21082;-64
2023/05/28 01:38:15;;;;;;;6.83;2.10;;;;;;;16.33;48.59;100539.52;1667106;86;21050;-65
2023/05/28 01:40:46;;;;;;;8.03;2.15;;;;;;;16.32;48.49;100534.52;1644406;86;21497;-65
2023/05/28 01:43:16;;;;;;;6.55;2.20;;;;;;;16.29;48.50;100539.13;1666937;86;21105;-66
2023/05/28 01:45:47;;;;;;;4.00;1.90;;;;;;;16.24;48.56;100541.72;1689379;82;21029;-65
2023/05/28 01:48:17;;;;;;;5.20;1.75;;;;;;;16.24;48.59;100540.88;1723389;83;21079;-65
2023/05/28 01:50:48;;;;;;;4.50;2.00;;;;;;;16.23;48.55;100541.95;1733255;83;21023;-66
2023/05/28 01:53:17;;;;;;;7.78;2.15;;;;;;;16.20;48.56;100546.56;1712683;83;21047;-65
2023/05/28 01:55:46;;;;;;;7.08;2.10;;;;;;;16.18;48.52;100549.02;1712494;81;21058;-64
2023/05/28 01:58:16;;;;;;;4.60;1.90;;;;;;;16.18;48.40;100549.02;1733430;83;21059;-65
2023/05/28 02:01:01;;;;;;;6.95;1.98;;;;;;;16.10;48.43;100539.65;1652035;86;21554;-65
2023/05/28 02:03:30;;;;;;;6.92;2.00;;;;;;;16.06;48.51;100548.09;1615181;87;21051;-66
2023/05/28 02:06:00;;;;;;;6.15;2.15;;;;;;;16.04;48.45;100555.78;1652003;86;21601;-65
2023/05/28 02:08:29;;;;;;;7.50;1.98;;;;;;;16.03;48.45;100556.00;1652228;87;21071;-65
2023/05/28 02:10:59;;;;;;;3.72;1.90;;;;;;;16.02;48.40;100560.69;1652213;87;21079;-64
2023/05/28 02:13:27;;;;;;;7.22;1.98;;;;;;;15.97;48.41;100558.30;1629929;87;21031;-64
2023/05/28 02:15:57;;;;;;;4.10;1.85;;;;;;;15.94;48.49;100556.00;1630070;87;21062;-65
2023/05/28 02:18:36;;;;;;;6.00;2.05;;;;;;;15.88;48.44;100559.14;1680071;84;21193;-65
2023/05/28 02:21:06;;;;;;;4.42;1.87;;;;;;;15.83;48.55;100553.45;1699243;83;21514;-64
2023/05/28 02:23:35;;;;;;;6.20;2.27;;;;;;;15.80;48.56;100559.44;1671544;83;21101;-64
2023/05/28 02:26:04;;;;;;;8.60;2.02;;;;;;;15.80;48.52;100556.68;1774339;80;21059;-65
2023/05/28 02:28:34;;;;;;;5.33;2.10;;;;;;;15.80;48.42;100554.77;1788765;80;21027;-66
2023/05/28 02:31:04;;;;;;;6.83;1.87;;;;;;;15.78;48.48;100556.06;1788574;80;21455;-65
2023/05/28 02:33:33;;;;;;;4.83;2.12;;;;;;;15.70;48.42;100555.82;1788714;80;21072;-64
2023/05/28 02:36:05;;;;;;;6.35;1.80;;;;;;;15.66;48.52;100555.97;1759066;80;21498;-65
2023/05/28 02:38:37;;;;;;;6.08;1.85;;;;;;;15.66;48.44;100549.59;1761531;80;21072;-65
2023/05/28 02:41:07;;;;;;;6.00;1.85;;;;;;;15.66;48.46;100559.27;1788823;80;21436;-65
2023/05/28 02:43:38;;;;;;;4.97;1.90;;;;;;;15.66;48.51;100559.27;1788577;80;21524;-64
2023/05/28 02:46:08;;;;;;;3.77;1.75;;;;;;;15.65;48.35;100556.19;1788736;80;21051;-65
2023/05/28 02:48:38;;;;;;;4.92;1.80;;;;;;;15.63;48.34;100563.86;1788721;80;21521;-65
2023/05/28 02:51:07;;;;;;;5.97;1.72;;;;;;;15.63;48.34;100556.95;1734991;80;21051;-65
2023/05/28 02:53:47;;;;;;;3.72;1.80;;;;;;;15.57;48.31;100558.64;1788393;80;21064;-65
2023/05/28 02:56:16;;;;;;;6.20;1.87;;;;;;;15.55;48.29;100554.73;1788518;80;21091;-64
2023/05/28 02:58:46;;;;;;;6.30;1.92;;;;;;;15.53;48.27;100554.11;1788804;79;21051;-64
2023/05/28 03:01:16;;;;;;;3.77;1.82;;;;;;;15.51;48.24;100553.48;1758975;80;21036;-65
2023/05/28 03:03:47;;;;;;;3.95;1.92;;;;;;;15.52;48.22;100555.72;1788479;80;21091;-64
2023/05/28 03:06:16;;;;;;;4.70;1.70;;;;;;;15.52;48.20;100566.23;1759103;80;21036;-65
2023/05/28 03:08:50;;;;;;;3.08;1.75;;;;;;;15.52;48.15;100561.23;1788570;80;21028;-64
2023/05/28 03:11:19;;;;;;;4.10;1.62;;;;;;;15.52;47.93;100570.38;1788545;80;21047;-65
2023/05/28 03:13:49;;;;;;;5.08;1.92;;;;;;;15.53;47.75;100569.83;1761055;80;21119;-65
2023/05/28 03:16:19;;;;;;;2.70;1.60;;;;;;;15.52;47.70;100581.41;1788758;80;21164;-65
2023/05/28 03:18:51;;;;;;;3.17;1.70;;;;;;;15.49;47.76;100579.64;1783271;80;21452;-64
2023/05/28 03:21:20;;;;;;;5.10;1.82;;;;;;;15.45;47.66;100580.63;1783401;80;21076;-64
2023/05/28 03:23:51;;;;;;;3.12;1.55;;;;;;;15.45;47.55;100588.91;1783099;80;21004;-63
2023/05/28 03:26:22;;;;;;;5.15;1.50;;;;;;;15.42;47.51;100583.00;1782432;80;21021;-65
2023/05/28 03:28:52;;;;;;;3.52;1.50;;;;;;;15.39;47.53;100589.81;1783054;80;21043;-65
2023/05/28 03:31:45;;;;;;;5.40;1.80;;;;;;;15.39;47.46;100591.19;1782919;80;21095;-63
2023/05/28 03:34:16;;;;;;;4.67;1.70;;;;;;;15.34;47.30;100591.02;1783177;80;21469;-64
2023/05/28 03:36:45;;;;;;;6.15;1.70;;;;;;;15.29;47.53;100599.13;1783081;80;21452;-64
2023/05/28 03:39:16;;;;;;;3.45;1.67;;;;;;;15.26;47.48;100602.34;1782748;80;21059;-63
2023/05/28 03:41:45;;;;;;;3.45;1.80;;;;;;;15.25;47.25;100599.80;1782854;80;21514;-64
2023/05/28 03:44:20;;;;;;;4.70;1.77;;;;;;;15.20;47.35;100599.94;1782883;80;21429;-63
2023/05/28 03:46:48;;;;;;;4.70;1.75;;;;;;;15.20;47.21;100596.33;1783060;80;21461;-66
2023/05/28 03:49:18;;;;;;;6.33;1.60;;;;;;;15.20;47.19;100594.95;1783198;80;21075;-65
2023/05/28 03:51:47;;;;;;;3.67;1.62;;;;;;;15.22;47.02;100596.95;1783101;80;21012;-64
2023/05/28 03:54:16;;;;;;;4.58;1.67;;;;;;;15.22;46.87;100593.66;1751194;80;21036;-65
2023/05/28 03:56:48;;;;;;;3.17;1.60;;;;;;;15.22;47.01;100588.67;1751376;80;21048;-65
2023/05/28 03:59:17;;;;;;;5.97;1.72;;;;;;;15.27;46.71;100593.52;1753354;80;21462;-64
2023/05/28 04:01:47;;;;;;;2.72;1.37;;;;;;;15.32;46.56;100595.08;1782796;80;21036;-63
2023/05/28 04:04:16;;;;;;;3.77;1.52;;;;;;;15.33;46.08;100594.01;1783127;80;21111;-64
2023/05/28 04:06:47;;;;;;;7.67;1.75;;;;;;;15.31;46.13;100598.38;1686120;85;21505;-64
2023/05/28 04:09:17;;;;;;;3.85;1.55;;;;;;;15.29;46.06;100599.13;1686533;85;21058;-64
2023/05/28 04:11:47;;;;;;;4.72;1.60;;;;;;;15.27;45.94;100593.52;1686424;85;21058;-63
2023/05/28 04:14:16;;;;;;;3.35;1.50;;;;;;;15.27;46.04;100601.81;1686156;85;21567;-65
2023/05/28 04:16:46;;;;;;;5.17;1.45;;;;;;;15.28;45.92;100600.73;1686489;85;21074;-65
2023/05/28 04:19:15;;;;;;;5.72;1.80;;;;;;;15.28;45.95;100603.50;1686214;84;21106;-64
2023/05/28 04:21:44;;;;;;;3.80;1.82;;;;;;;15.32;45.88;100605.59;1686410;85;21215;-65
2023/05/28 04:24:14;;;;;;;5.45;1.85;;;;;;;15.34;45.75;100604.83;1708264;80;21024;-64
2023/05/28 04:26:43;;;;;;;4.03;2.05;;;;;;;15.38;45.48;100612.97;1782873;80;21040;-64
2023/05/28 04:29:15;;;;;;;7.05;1.90;;;;;;;15.36;45.57;100612.35;1783268;80;21471;-64
2023/05/28 04:31:47;;;;;;;7.42;1.60;;;;;;;15.39;45.47;100603.63;1751697;80;21076;-63
2023/05/28 04:34:16;;;;;;;5.92;1.70;;;;;;;15.40;45.44;100616.36;1782725;80;21500;-63
2023/05/28 04:36:48;;;;;;;2.80;1.47;;;;;;;15.37;45.42;100616.80;1783118;80;21057;-64
2023/05/28 04:39:21;;;;;;;3.50;1.55;;;;;;;15.38;45.66;100617.11;1751404;80;21447;-64
2023/05/28 04:41:53;;;;;;;3.35;1.85;;;;;;;15.44;45.54;100622.27;1783153;80;21040;-63
2023/05/28 04:44:25;;;;;;;2.98;1.50;;;;;;;15.53;45.38;100619.55;1782987;80;21060;-63
2023/05/28 04:46:54;;;;;;;3.62;1.62;;;;;;;15.62;45.15;100621.02;1783154;80;21006;-64
2023/05/28 04:49:29;;;;;;;4.20;1.80;;;;;;;15.63;45.14;100614.42;1783121;80;21056;-64
2023/05/28 04:51:58;;;;;;;3.20;1.20;;;;;;;15.62;45.01;100618.80;1751654;80;21079;-63
2023/05/28 04:54:29;;;;;;;2.10;1.40;;;;;;;15.63;45.21;100617.72;1782914;80;21503;-65
2023/05/28 04:56:58;;;;;;;2.37;1.60;;;;;;;15.72;45.23;100620.52;1783082;80;21043;-63
2023/05/28 04:59:28;;;;;;;4.78;1.50;;;;;;;15.87;45.15;100622.92;1751425;80;21083;-64
2023/05/28 05:01:57;;;;;;;3.37;1.67;;;;;;;16.04;44.64;100626.26;1753243;80;21107;-63
2023/05/28 05:04:27;;;;;;;3.77;1.50;;;;;;;16.18;44.42;100623.66;1782715;80;21055;-64
2023/05/28 05:06:58;;;;;;;5.30;2.00;;;;;;;16.39;44.12;100623.78;1783150;80;21486;-63
2023/05/28 05:09:27;;;;;;;3.90;1.32;;;;;;;16.63;43.70;100626.15;1782868;80;21658;-63
2023/05/28 05:11:57;;;;;;;9.63;2.05;;;;;;;16.86;43.33;100615.77;1782813;80;21538;-63
2023/05/28 05:14:29;;;;;;;3.80;1.80;;;;;;;17.13;42.77;100619.58;1782880;80;21052;-63
2023/05/28 05:16:59;;;;;;;4.30;1.60;;;;;;;17.35;42.40;100617.96;1782840;80;21502;-63
2023/05/28 05:19:30;;;;;;;3.45;1.50;;;;;;;17.56;41.94;100617.44;1782888;79;21240;-64
2023/05/28 05:22:00;;;;;;;7.45;1.80;;;;;;;17.83;41.55;100613.70;1782816;80;21412;-64
2023/05/28 05:24:31;;;;;;;2.77;1.92;;;;;;;18.14;41.08;100616.65;1783034;80;21067;-64
2023/05/28 05:27:01;;;;;;;4.17;1.70;;;;;;;18.38;40.66;100619.73;1783162;80;21030;-64
2023/05/28 05:29:31;;;;;;;4.62;1.70;;;;;;;18.59;40.07;100618.77;1727489;80;21079;-64
2023/05/28 05:32:02;;;;;;;7.05;1.77;;;;;;;18.72;39.89;100619.92;1783099;80;21095;-65
2023/05/28 05:34:32;;;;;;;9.00;1.60;;;;;;;18.89;39.15;100620.86;1783150;80;21020;-63
2023/05/28 05:37:20;;;;;;;3.83;1.67;;;;;;;19.02;38.70;100628.05;1783277;80;21004;-65
2023/05/28 05:39:51;;;;;;;4.42;1.80;;;;;;;19.13;38.79;100625.77;1778879;80;21024;-64
2023/05/28 05:42:26;;;;;;;3.15;1.90;;;;;;;19.31;38.05;100631.66;1779973;80;21052;-63
2023/05/28 05:44:56;;;;;;;5.85;2.30;;;;;;;19.38;38.00;100632.34;1751317;80;21035;-64
2023/05/28 05:47:25;;;;;;;3.62;2.60;;;;;;;19.57;38.02;100632.47;1783177;80;21060;-63
2023/05/28 05:49:56;;;;;;;3.25;1.65;;;;;;;19.63;37.80;100631.47;1751490;80;21061;-63
2023/05/28 05:52:25;;;;;;;3.35;1.50;;;;;;;19.81;37.62;100636.48;1783037;80;21071;-63
2023/05/28 05:54:58;;;;;;;4.25;2.00;;;;;;;19.97;37.51;100635.62;1783151;80;21140;-65
2023/05/28 05:57:28;;;;;;;4.30;1.98;;;;;;;20.28;36.81;100630.02;1782861;80;21044;-63
2023/05/28 05:59:57;;;;;;;5.72;1.65;;;;;;;20.44;36.12;100625.53;1783273;80;21460;-64
2023/05/28 06:02:29;;;;;;;4.83;1.60;;;;;;;20.52;36.01;100628.71;1783183;80;21020;-63
2023/05/28 06:05:00;;;;;;;5.22;1.92;;;;;;;20.63;35.84;100626.91;1782887;80;21085;-63
2023/05/28 06:07:43;;;;;;;7.92;2.02;;;;;;;20.77;35.65;100628.75;1778154;80;21187;-64
2023/05/28 06:10:17;;;;;;;3.17;1.40;;;;;;;20.89;35.28;100630.33;1782272;80;21036;-64
2023/05/28 06:12:46;;;;;;;3.15;1.50;;;;;;;21.10;35.10;100628.62;1783023;80;21051;-64
2023/05/28 06:15:16;;;;;;;2.75;1.72;;;;;;;21.50;34.60;100626.02;1783149;80;21491;-63
2023/05/28 06:17:47;;;;;;;4.58;1.67;;;;;;;21.80;33.95;100628.23;1777350;80;21063;-65
2023/05/28 06:20:19;;;;;;;4.25;1.72;;;;;;;21.87;33.91;100626.06;1739117;81;21046;-64
2023/05/28 06:22:50;;;;;;;2.20;1.37;;;;;;;21.88;33.92;100628.30;1720247;82;21050;-63
2023/05/28 06:25:21;;;;;;;8.65;1.82;;;;;;;21.92;33.82;100628.89;1739421;82;21453;-64
2023/05/28 06:27:52;;;;;;;3.22;1.55;;;;;;;22.08;33.61;100628.48;1739205;82;21034;-64
2023/05/28 06:30:21;;;;;;;3.62;1.67;;;;;;;22.21;32.89;100629.99;1739351;81;21042;-64
2023/05/28 06:32:52;;;;;;;2.83;1.42;;;;;;;22.40;32.65;100628.44;1720604;82;21094;-64
2023/05/28 06:35:21;;;;;;;4.67;1.72;;;;;;;22.40;32.66;100632.06;1739373;81;21045;-65
2023/05/28 06:37:51;;;;;;;3.70;1.62;;;;;;;22.36;32.79;100634.27;1720368;82;21049;-65
2023/05/28 06:40:22;;;;;;;4.22;1.87;;;;;;;22.43;32.92;100629.29;1720858;82;21018;-64
2023/05/28 06:42:50;;;;;;;4.92;1.30;;;;;;;22.50;32.54;100636.03;1739269;81;21046;-64
2023/05/28 06:45:21;;;;;;;4.00;1.57;;;;;;;22.63;32.42;100625.77;1737421;81;21090;-64
2023/05/28 06:47:51;;;;;;;5.72;1.50;;;;;;;22.80;31.74;100625.06;1739214;82;21058;-64
2023/05/28 06:50:22;;;;;;;3.30;1.60;;;;;;;22.80;32.11;100624.19;1720443;82;21486;-64
2023/05/28 06:52:55;;;;;;;5.15;1.52;;;;;;;23.02;31.88;100627.66;1739156;82;21058;-64
2023/05/28 06:55:24;;;;;;;4.17;1.62;;;;;;;23.15;31.56;100620.70;1739018;82;21121;-68
2023/05/28 06:57:55;;;;;;;2.37;1.50;;;;;;;23.27;31.62;100617.09;1645438;87;21078;-63
2023/05/28 07:00:30;;;;;;;5.25;1.75;;;;;;;23.46;31.37;100622.47;1626410;87;21097;-64
2023/05/28 07:03:11;;;;;;;5.83;1.65;;;;;;;23.61;31.57;100628.11;1645697;85;21090;-66
2023/05/28 07:05:52;;;;;;;4.12;1.87;;;;;;;23.75;31.13;100623.36;1646307;85;21069;-65
2023/05/28 07:08:22;;;;;;;2.72;1.60;;;;;;;23.80;30.93;100616.36;1648039;86;21099;-64
2023/05/28 07:10:51;;;;;;;4.92;1.75;;;;;;;23.77;30.87;100622.52;1647948;86;21141;-65
2023/05/28 07:13:20;;;;;;;6.15;1.50;;;;;;;23.73;30.92;100624.20;1647925;87;21134;-63
2023/05/28 07:15:50;;;;;;;3.87;1.80;;;;;;;23.90;30.61;100616.36;1664190;82;21073;-65
2023/05/28 07:18:19;;;;;;;5.22;1.65;;;;;;;23.84;30.62;100611.32;1746767;80;21072;-66
2023/05/28 07:20:48;;;;;;;3.70;1.57;;;;;;;23.83;30.92;100615.80;1769956;81;21064;-64
2023/05/28 07:23:20;;;;;;;5.50;1.60;;;;;;;23.95;30.71;100616.35;1769373;80;21021;-64
2023/05/28 07:25:50;;;;;;;6.22;1.72;;;;;;;24.14;30.24;100621.68;1770002;81;21107;-65
2023/05/28 07:28:20;;;;;;;5.25;1.57;;;;;;;24.11;30.51;100622.24;1769731;81;21033;-63
2023/05/28 07:30:49;;;;;;;5.80;1.70;;;;;;;24.19;30.32;100611.03;1769663;81;21507;-64
2023/05/28 07:33:18;;;;;;;2.75;1.70;;;;;;;24.28;30.34;100606.00;1769855;81;21040;-63
2023/05/28 07:35:48;;;;;;;5.78;1.80;;;;;;;24.32;30.06;100611.31;1770005;80;21040;-65
2023/05/28 07:38:19;;;;;;;4.85;1.50;;;;;;;24.36;30.09;100608.78;1769976;81;21544;-64
2023/05/28 07:40:50;;;;;;;5.95;1.57;;;;;;;24.38;30.28;100607.09;1769883;81;21013;-63
2023/05/28 07:43:21;;;;;;;3.85;1.72;;;;;;;24.40;29.87;100610.45;1768694;80;21083;-64
2023/05/28 07:45:54;;;;;;;3.58;1.70;;;;;;;24.41;29.98;100599.52;1769740;81;21025;-65
2023/05/28 07:48:25;;;;;;;6.25;1.47;;;;;;;24.46;30.13;100594.74;1769946;80;21092;-64
2023/05/28 07:51:00;;;;;;;4.33;1.70;;;;;;;24.54;30.13;100596.95;1769728;80;21057;-63
2023/05/28 07:53:32;;;;;;;3.55;1.75;;;;;;;24.59;29.87;100591.89;1747059;81;21037;-64
2023/05/28 07:56:02;;;;;;;8.65;1.80;;;;;;;24.80;29.32;100591.27;1769847;81;21068;-63
2023/05/28 07:58:33;;;;;;;3.10;1.52;;;;;;;24.84;29.49;100592.38;1741038;81;21044;-65
2023/05/28 08:01:08;;;;;;;6.62;1.47;;;;;;;24.88;29.60;100597.12;1769697;81;21041;-63
2023/05/28 08:03:36;;;;;;;5.40;1.75;;;;;;;25.02;29.48;100593.72;1769664;81;21092;-63
2023/05/28 08:06:06;;;;;;;4.80;1.82;;;;;;;25.21;28.40;100596.12;1769967;81;21095;-65
2023/05/28 08:08:37;;;;;;;4.37;1.50;;;;;;;25.13;28.56;100597.57;1769884;81;21426;-64
2023/05/28 08:11:10;;;;;;;3.98;1.52;;;;;;;24.92;29.30;100588.41;1769885;81;20989;-65
2023/05/28 08:13:41;;;;;;;4.75;1.80;;;;;;;25.00;29.21;100581.95;1769978;80;21014;-67
2023/05/28 08:16:13;;;;;;;9.05;1.85;;;;;;;25.16;29.00;100590.55;1769661;81;21452;-69
2023/05/28 08:19:02;;;;;;;6.50;1.60;;;;;;;25.42;28.84;100587.87;1749970;80;21056;-69
2023/05/28 08:21:32;;;;;;;4.62;1.42;;;;;;;25.35;28.76;100585.92;1741700;80;21144;-68
2023/05/28 08:24:04;;;;;;;5.28;1.47;;;;;;;25.32;28.57;100581.46;1766889;80;21016;-70
2023/05/28 08:26:34;;;;;;;4.08;1.60;;;;;;;25.28;28.81;100588.22;1785226;80;21097;-71
2023/05/28 08:29:04;;;;;;;4.15;1.82;;;;;;;25.30;28.89;100581.75;1779444;80;21014;-68
2023/05/28 08:31:36;;;;;;;12.98;7.75;;;;;;;25.44;28.85;100581.40;1729711;83;21184;-67
2023/05/28 08:34:10;;;;;;;4.15;2.65;;;;;;;25.63;28.57;100579.29;1728961;83;21057;-70
2023/05/28 08:36:39;;;;;;;5.72;1.90;;;;;;;25.66;27.98;100578.17;1730053;83;21148;-70
2023/05/28 08:39:10;;;;;;;5.30;2.37;;;;;;;25.70;27.86;100578.42;1734830;81;21031;-68
2023/05/28 08:41:39;;;;;;;4.53;1.80;;;;;;;25.82;27.69;100581.11;1746085;81;21545;-71
2023/05/28 08:44:08;;;;;;;4.60;1.75;;;;;;;25.86;27.62;100570.96;1776515;81;21095;-71
2023/05/28 08:46:38;;;;;;;6.00;1.72;;;;;;;25.92;27.40;100574.56;1776790;81;21086;-70
2023/05/28 08:49:16;;;;;;;4.70;1.90;;;;;;;26.12;27.26;100564.55;1742510;81;21835;-71
2023/05/28 08:51:49;;;;;;;6.72;1.85;;;;;;;26.04;27.01;100572.22;1786930;79;21451;-71
2023/05/28 08:54:20;;;;;;;9.68;2.40;;;;;;;25.93;26.90;100560.79;1789665;79;21072;-70
2023/05/28 08:56:48;;;;;;;3.87;1.65;;;;;;;25.74;26.88;100565.47;1756794;80;21018;-71
2023/05/28 08:59:18;;;;;;;4.42;1.70;;;;;;;25.54;27.48;100572.06;1777880;80;21016;-71
2023/05/28 09:01:47;;;;;;;3.05;1.60;;;;;;;25.39;27.31;100570.78;1782843;80;21052;-70
2023/05/28 09:04:18;;;;;;;4.42;1.92;;;;;;;25.39;27.31;100570.78;1782794;80;21048;-71
2023/05/28 09:06:51;;;;;;;3.55;1.67;;;;;;;25.30;27.02;100567.73;1785107;80;21015;-73
2023/05/28 09:09:24;;;;;;;3.67;1.80;;;;;;;25.20;27.50;100566.40;1774263;80;21062;-70
2023/05/28 09:12:06;;;;;;;4.37;1.50;;;;;;;25.16;27.17;100563.90;1793638;79;21042;-70
2023/05/28 09:14:39;;;;;;;2.10;1.57;;;;;;;25.00;27.61;100567.37;1774350;80;21019;-70
2023/05/28 09:17:09;;;;;;;4.97;1.70;;;;;;;24.91;27.97;100573.28;1793309;80;21038;-72
2023/05/28 09:19:39;;;;;;;3.62;1.67;;;;;;;24.84;27.69;100570.79;1777001;80;21085;-72
2023/05/28 09:22:08;;;;;;;4.33;1.45;;;;;;;24.80;28.10;100573.89;1796783;78;21050;-72
2023/05/28 09:24:43;;;;;;;6.25;1.50;;;;;;;24.80;27.91;100573.89;1733618;82;21029;-71
2023/05/28 09:27:23;;;;;;;3.67;1.52;;;;;;;24.60;28.12;100569.19;1705743;83;21196;-75
2023/05/28 09:29:52;;;;;;;5.67;1.52;;;;;;;24.37;28.36;100572.64;1711840;83;22078;-70
2023/05/28 09:32:21;;;;;;;3.83;1.50;;;;;;;24.22;27.86;100566.50;1738240;82;21029;-72
2023/05/28 09:34:50;;;;;;;4.30;1.52;;;;;;;24.07;28.13;100566.53;1739026;82;21073;-70
2023/05/28 09:37:19;;;;;;;3.37;1.57;;;;;;;23.95;28.31;100582.77;1738957;82;21053;-72
2023/05/28 09:39:49;;;;;;;2.87;1.50;;;;;;;23.82;28.57;100570.19;1716760;80;21007;-71
2023/05/28 09:42:19;;;;;;;6.08;1.57;;;;;;;23.67;29.04;100571.03;1735398;80;21010;-71
2023/05/28 09:44:48;;;;;;;4.70;1.87;;;;;;;23.58;28.66;100570.48;1759190;80;21023;-72
2023/05/28 09:47:18;;;;;;;7.10;1.70;;;;;;;23.49;28.86;100570.17;1782654;80;21018;-71
2023/05/28 09:49:49;;;;;;;2.00;1.50;;;;;;;23.48;28.67;100574.08;1783020;80;21015;-71
2023/05/28 09:52:21;;;;;;;3.35;1.52;;;;;;;23.48;28.55;100570.45;1782895;80;20995;-72
2023/05/28 09:54:53;;;;;;;3.92;1.40;;;;;;;23.45;28.67;100571.00;1783019;80;21051;-71
2023/05/28 09:57:25;;;;;;;5.58;1.60;;;;;;;23.23;28.88;100583.81;1782427;80;21459;-72
2023/05/28 09:59:55;;;;;;;3.35;1.85;;;;;;;23.12;28.99;100576.53;1734196;81;21058;-70
2023/05/28 10:03:13;;;;;;;4.75;2.02;;;;;;;23.06;29.15;100575.67;1739959;82;21214;-71
2023/05/28 10:05:47;;;;;;;3.00;1.65;;;;;;;23.05;29.19;100562.26;1740129;82;21142;-71
2023/05/28 10:08:16;;;;;;;2.67;1.45;;;;;;;23.05;29.58;100570.64;1717778;82;21067;-70
2023/05/28 10:10:49;;;;;;;4.55;1.37;;;;;;;23.04;28.95;100578.75;1740092;82;21078;-71
2023/05/28 10:13:18;;;;;;;9.83;1.67;;;;;;;22.97;29.29;100569.78;1734263;81;21006;-74
2023/05/28 10:15:49;;;;;;;5.10;1.80;;;;;;;22.91;29.95;100568.09;1740058;82;21513;-70
2023/05/28 10:18:19;;;;;;;3.65;1.60;;;;;;;22.84;29.57;100568.91;1740221;82;21455;-70
2023/05/28 10:20:49;;;;;;;4.47;1.60;;;;;;;22.78;29.65;100563.00;1737298;82;21047;-70
2023/05/28 10:23:18;;;;;;;3.52;1.65;;;;;;;22.75;29.52;100569.94;1755635;82;21030;-70
2023/05/28 10:25:47;;;;;;;2.10;1.40;;;;;;;22.60;30.06;100569.05;1758558;81;21065;-70
2023/05/28 10:28:16;;;;;;;4.37;1.52;;;;;;;22.51;30.16;100567.34;1725943;83;21084;-69
2023/05/28 10:30:46;;;;;;;3.00;1.32;;;;;;;22.43;30.04;100568.70;1736754;81;21522;-72
2023/05/28 10:33:16;;;;;;;3.87;1.40;;;;;;;22.40;30.19;100572.03;1706769;83;21033;-67
2023/05/28 10:35:56;;;;;;;3.75;1.45;;;;;;;22.42;30.15;100564.23;1735148;83;21073;-71
2023/05/28 10:38:27;;;;;;;5.45;1.47;;;;;;;22.44;30.00;100574.56;1735010;81;21081;-70
2023/05/28 10:41:01;;;;;;;2.67;1.37;;;;;;;22.43;30.07;100558.08;1735305;83;21462;-71
2023/05/28 10:43:42;;;;;;;4.22;1.67;;;;;;;22.34;30.44;100561.95;1735160;83;21066;-70
2023/05/28 10:46:29;;;;;;;2.72;1.52;;;;;;;22.26;30.67;100565.81;1735190;83;21077;-71
2023/05/28 10:49:13;;;;;;;6.30;1.90;;;;;;;22.26;30.80;100564.42;1700539;83;21074;-71
2023/05/28 10:52:00;;;;;;;3.70;1.60;;;;;;;22.28;30.26;100563.59;1776892;81;21015;-71
2023/05/28 10:54:40;;;;;;;3.27;1.57;;;;;;;22.28;30.19;100554.66;1747355;81;21102;-70
2023/05/28 10:57:21;;;;;;;5.58;1.67;;;;;;;22.23;30.61;100561.62;1776839;81;21007;-71
2023/05/28 11:00:03;;;;;;;6.03;2.00;;;;;;;22.20;30.73;100549.59;1671905;84;21042;-69
2023/05/28 11:02:36;;;;;;;9.00;1.60;;;;;;;22.21;31.08;100549.05;1709218;84;21535;-70
2023/05/28 11:05:06;;;;;;;4.30;1.50;;;;;;;22.28;31.07;100558.85;1709427;84;21042;-70
2023/05/28 11:07:41;;;;;;;6.22;1.70;;;;;;;22.30;30.47;100548.25;1686476;84;21082;-70
2023/05/28 11:10:12;;;;;;;4.00;1.72;;;;;;;22.21;30.55;100551.28;1653185;84;21095;-71
2023/05/28 11:12:42;;;;;;;4.75;1.67;;;;;;;22.17;30.53;100546.51;1654595;84;21069;-70
2023/05/28 11:15:12;;;;;;;3.98;1.60;;;;;;;22.09;30.44;100560.39;1709473;84;21109;-71
2023/05/28 11:17:44;;;;;;;3.55;1.50;;;;;;;22.12;30.46;100562.67;1709738;83;21047;-70
2023/05/28 11:20:25;;;;;;;3.30;1.50;;;;;;;22.16;30.30;100550.41;1690089;83;21494;-70
2023/05/28 11:22:55;;;;;;;3.62;1.50;;;;;;;22.23;30.06;100557.98;1717076;83;21066;-70
2023/05/28 11:25:25;;;;;;;3.40;1.70;;;;;;;22.30;29.61;100554.39;1717099;83;21074;-71
2023/05/28 11:27:57;;;;;;;3.87;1.32;;;;;;;22.30;29.87;100559.98;1717310;83;21090;-69
2023/05/28 11:30:25;;;;;;;2.80;1.50;;;;;;;22.28;29.56;100549.08;1699418;83;21089;-69
2023/05/28 11:32:55;;;;;;;3.42;1.40;;;;;;;22.20;29.01;100552.95;1694950;85;21066;-69
2023/05/28 11:35:26;;;;;;;8.98;1.75;;;;;;;22.19;28.79;100555.45;1694530;84;21122;-68
2023/05/28 11:37:59;;;;;;;3.22;1.47;;;;;;;22.19;28.99;100553.50;1756655;80;21533;-70
2023/05/28 11:40:34;;;;;;;1.98;1.42;;;;;;;22.18;29.16;100560.20;1759753;80;21086;-69
2023/05/28 11:43:04;;;;;;;3.85;1.42;;;;;;;22.19;29.47;100559.08;1782597;80;21450;-69
2023/05/28 11:45:42;;;;;;;3.25;1.50;;;;;;;22.09;29.58;100554.25;1759320;80;21516;-68